sensor_id;sensor_type;location;lat;lon;timestamp;temperature;humidity
18797;DHT22;9526;52.612;13.300;2023-03-23T00:00:42;11.90;99.90
18797;DHT22;9526;52.612;13.300;2023-03-23T00:03:04;11.80;99.90
18797;DHT22;9526;52.612;13.300;2023-03-23T00:05:27;11.70;99.90
18797;DHT22;9526;52.612;13.300;2023-03-23T00:07:50;11.70;99.90
18797;DHT22;9526;52.612;13.300;2023-03-23T00:10:14;11.60;99.90
18797;DHT22;9526;52.612;13.300;2023-03-23T00:12:37;11.60;99.90
18797;DHT22;9526;52.612;13.300;2023-03-23T00:15:04;11.50;99.90
18797;DHT22;9526;52.612;13.300;2023-03-23T00:17:29;11.40;99.90
18797;DHT22;9526;52.612;13.300;2023-03-23T00:19:53;11.50;99.90
18797;DHT22;9526;52.612;13.300;2023-03-23T00:22:17;11.30;99.90
18797;DHT22;9526;52.612;13.300;2023-03-23T00:24:42;11.30;99.90
18797;DHT22;9526;52.612;13.300;2023-03-23T00:27:06;11.30;99.90
18797;DHT22;9526;52.612;13.300;2023-03-23T00:29:33;11.30;99.90
18797;DHT22;9526;52.612;13.300;2023-03-23T00:31:55;11.20;99.90
18797;DHT22;9526;52.612;13.300;2023-03-23T00:34:20;11.20;99.90
18797;DHT22;9526;52.612;13.300;2023-03-23T00:36:46;11.10;99.90
18797;DHT22;9526;52.612;13.300;2023-03-23T00:39:09;11.10;99.90
18797;DHT22;9526;52.612;13.300;2023-03-23T00:41:32;11.00;99.90
18797;DHT22;9526;52.612;13.300;2023-03-23T00:43:58;11.00;99.90
18797;DHT22;9526;52.612;13.300;2023-03-23T00:46:22;10.90;99.90
18797;DHT22;9526;52.612;13.300;2023-03-23T00:48:45;10.90;99.90
18797;DHT22;9526;52.612;13.300;2023-03-23T00:51:08;10.80;99.90
18797;DHT22;9526;52.612;13.300;2023-03-23T00:53:32;10.80;99.90
18797;DHT22;9526;52.612;13.300;2023-03-23T00:55:55;10.80;99.90
18797;DHT22;9526;52.612;13.300;2023-03-23T00:58:17;10.70;99.90
18797;DHT22;9526;52.612;13.300;2023-03-23T01:00:42;10.70;99.90
18797;DHT22;9526;52.612;13.300;2023-03-23T01:03:05;10.60;99.90
18797;DHT22;9526;52.612;13.300;2023-03-23T01:05:29;10.60;99.90
18797;DHT22;9526;52.612;13.300;2023-03-23T01:07:53;10.60;99.90
18797;DHT22;9526;52.612;13.300;2023-03-23T01:10:16;10.60;99.90
18797;DHT22;9526;52.612;13.300;2023-03-23T01:12:38;10.50;99.90
18797;DHT22;9526;52.612;13.300;2023-03-23T01:15:01;10.50;99.90
18797;DHT22;9526;52.612;13.300;2023-03-23T01:17:25;10.40;99.90
18797;DHT22;9526;52.612;13.300;2023-03-23T01:19:48;10.40;99.90
18797;DHT22;9526;52.612;13.300;2023-03-23T01:22:11;10.40;99.90
18797;DHT22;9526;52.612;13.300;2023-03-23T01:24:33;10.30;99.90
18797;DHT22;9526;52.612;13.300;2023-03-23T01:26:56;10.30;99.90
18797;DHT22;9526;52.612;13.300;2023-03-23T01:29:19;10.30;99.90
18797;DHT22;9526;52.612;13.300;2023-03-23T01:31:42;10.30;99.90
18797;DHT22;9526;52.612;13.300;2023-03-23T01:34:07;10.30;99.90
18797;DHT22;9526;52.612;13.300;2023-03-23T01:36:32;10.20;99.90
18797;DHT22;9526;52.612;13.300;2023-03-23T01:38:56;10.30;99.90
18797;DHT22;9526;52.612;13.300;2023-03-23T01:41:20;10.30;99.90
18797;DHT22;9526;52.612;13.300;2023-03-23T01:43:55;10.30;99.90
18797;DHT22;9526;52.612;13.300;2023-03-23T01:46:26;10.30;99.90
18797;DHT22;9526;52.612;13.300;2023-03-23T01:48:50;10.30;99.90
18797;DHT22;9526;52.612;13.300;2023-03-23T01:51:15;10.30;99.90
18797;DHT22;9526;52.612;13.300;2023-03-23T01:53:44;10.30;99.90
18797;DHT22;9526;52.612;13.300;2023-03-23T01:56:09;10.40;99.90
18797;DHT22;9526;52.612;13.300;2023-03-23T01:58:37;10.40;99.90
18797;DHT22;9526;52.612;13.300;2023-03-23T02:01:03;10.40;99.90
18797;DHT22;9526;52.612;13.300;2023-03-23T02:03:30;10.40;99.90
18797;DHT22;9526;52.612;13.300;2023-03-23T02:05:55;10.40;99.90
18797;DHT22;9526;52.612;13.300;2023-03-23T02:08:32;10.50;99.90
18797;DHT22;9526;52.612;13.300;2023-03-23T02:10:56;10.50;99.90
18797;DHT22;9526;52.612;13.300;2023-03-23T02:13:19;10.60;99.90
18797;DHT22;9526;52.612;13.300;2023-03-23T02:15:47;10.60;99.90
18797;DHT22;9526;52.612;13.300;2023-03-23T02:18:23;10.60;99.90
18797;DHT22;9526;52.612;13.300;2023-03-23T02:21:38;10.60;99.90
18797;DHT22;9526;52.612;13.300;2023-03-23T02:24:54;10.70;99.90
18797;DHT22;9526;52.612;13.300;2023-03-23T02:27:41;10.70;99.90
18797;DHT22;9526;52.612;13.300;2023-03-23T02:30:46;10.80;99.90
18797;DHT22;9526;52.612;13.300;2023-03-23T02:33:38;10.80;99.90
18797;DHT22;9526;52.612;13.300;2023-03-23T02:36:09;10.80;99.90
18797;DHT22;9526;52.612;13.300;2023-03-23T02:38:39;10.80;99.90
18797;DHT22;9526;52.612;13.300;2023-03-23T02:41:04;10.90;99.90
18797;DHT22;9526;52.612;13.300;2023-03-23T02:43:30;10.90;99.90
18797;DHT22;9526;52.612;13.300;2023-03-23T02:45:58;10.90;99.90
18797;DHT22;9526;52.612;13.300;2023-03-23T02:48:28;11.00;99.90
18797;DHT22;9526;52.612;13.300;2023-03-23T02:50:53;11.00;99.90
18797;DHT22;9526;52.612;13.300;2023-03-23T02:53:19;11.10;99.90
18797;DHT22;9526;52.612;13.300;2023-03-23T02:55:46;11.00;99.90
18797;DHT22;9526;52.612;13.300;2023-03-23T02:58:13;11.10;99.90
18797;DHT22;9526;52.612;13.300;2023-03-23T03:00:38;11.10;99.90
18797;DHT22;9526;52.612;13.300;2023-03-23T03:03:02;11.10;99.90
18797;DHT22;9526;52.612;13.300;2023-03-23T03:05:34;11.10;99.90
18797;DHT22;9526;52.612;13.300;2023-03-23T03:08:02;11.20;99.90
18797;DHT22;9526;52.612;13.300;2023-03-23T03:10:41;11.20;99.90
18797;DHT22;9526;52.612;13.300;2023-03-23T03:13:13;11.30;99.90
18797;DHT22;9526;52.612;13.300;2023-03-23T03:15:43;11.30;99.90
18797;DHT22;9526;52.612;13.300;2023-03-23T03:18:12;11.40;99.90
18797;DHT22;9526;52.612;13.300;2023-03-23T03:20:45;11.40;99.90
18797;DHT22;9526;52.612;13.300;2023-03-23T03:23:12;11.40;99.90
18797;DHT22;9526;52.612;13.300;2023-03-23T03:25:38;11.50;99.90
18797;DHT22;9526;52.612;13.300;2023-03-23T03:28:02;11.50;99.90
18797;DHT22;9526;52.612;13.300;2023-03-23T03:30:39;11.50;99.90
18797;DHT22;9526;52.612;13.300;2023-03-23T03:33:05;11.50;99.90
18797;DHT22;9526;52.612;13.300;2023-03-23T03:35:29;11.50;99.90
18797;DHT22;9526;52.612;13.300;2023-03-23T03:37:55;11.50;99.90
18797;DHT22;9526;52.612;13.300;2023-03-23T03:40:20;11.50;99.90
18797;DHT22;9526;52.612;13.300;2023-03-23T03:42:45;11.50;99.90
18797;DHT22;9526;52.612;13.300;2023-03-23T03:45:11;11.50;99.90
18797;DHT22;9526;52.612;13.300;2023-03-23T03:47:35;11.40;99.90
18797;DHT22;9526;52.612;13.300;2023-03-23T03:49:58;11.40;99.90
18797;DHT22;9526;52.612;13.300;2023-03-23T03:52:20;11.40;99.90
18797;DHT22;9526;52.612;13.300;2023-03-23T03:54:44;11.40;99.90
18797;DHT22;9526;52.612;13.300;2023-03-23T03:57:07;11.30;99.90
18797;DHT22;9526;52.612;13.300;2023-03-23T03:59:53;11.30;99.90
18797;DHT22;9526;52.612;13.300;2023-03-23T04:02:39;11.30;99.90
18797;DHT22;9526;52.612;13.300;2023-03-23T04:05:02;11.30;99.90
18797;DHT22;9526;52.612;13.300;2023-03-23T04:07:27;11.30;99.90
18797;DHT22;9526;52.612;13.300;2023-03-23T04:09:52;11.30;99.90
18797;DHT22;9526;52.612;13.300;2023-03-23T04:12:16;11.30;99.90
18797;DHT22;9526;52.612;13.300;2023-03-23T04:14:50;11.20;99.90
18797;DHT22;9526;52.612;13.300;2023-03-23T04:17:13;11.20;99.90
18797;DHT22;9526;52.612;13.300;2023-03-23T04:19:38;11.20;99.90
18797;DHT22;9526;52.612;13.300;2023-03-23T04:22:01;11.20;99.90
18797;DHT22;9526;52.612;13.300;2023-03-23T04:24:26;11.20;99.90
18797;DHT22;9526;52.612;13.300;2023-03-23T04:26:53;11.20;99.90
18797;DHT22;9526;52.612;13.300;2023-03-23T04:29:21;11.20;99.90
18797;DHT22;9526;52.612;13.300;2023-03-23T04:32:02;11.20;99.90
18797;DHT22;9526;52.612;13.300;2023-03-23T04:34:31;11.20;99.90
18797;DHT22;9526;52.612;13.300;2023-03-23T04:36:56;11.20;99.90
18797;DHT22;9526;52.612;13.300;2023-03-23T04:39:22;11.20;99.90
18797;DHT22;9526;52.612;13.300;2023-03-23T04:41:47;11.20;99.90
18797;DHT22;9526;52.612;13.300;2023-03-23T04:44:19;11.20;99.90
18797;DHT22;9526;52.612;13.300;2023-03-23T04:46:56;11.20;99.90
18797;DHT22;9526;52.612;13.300;2023-03-23T04:49:19;11.20;99.90
18797;DHT22;9526;52.612;13.300;2023-03-23T04:51:47;11.20;99.90
18797;DHT22;9526;52.612;13.300;2023-03-23T04:54:30;11.20;99.90
18797;DHT22;9526;52.612;13.300;2023-03-23T04:56:55;11.20;99.90
18797;DHT22;9526;52.612;13.300;2023-03-23T04:59:21;11.20;99.90
18797;DHT22;9526;52.612;13.300;2023-03-23T05:01:59;11.20;99.90
18797;DHT22;9526;52.612;13.300;2023-03-23T05:04:22;11.20;99.90
18797;DHT22;9526;52.612;13.300;2023-03-23T05:06:55;11.30;99.90
18797;DHT22;9526;52.612;13.300;2023-03-23T05:09:21;11.20;99.90
18797;DHT22;9526;52.612;13.300;2023-03-23T05:11:45;11.10;99.90
18797;DHT22;9526;52.612;13.300;2023-03-23T05:14:08;11.10;99.90
18797;DHT22;9526;52.612;13.300;2023-03-23T05:16:32;11.20;99.90
18797;DHT22;9526;52.612;13.300;2023-03-23T05:18:57;11.20;99.90
18797;DHT22;9526;52.612;13.300;2023-03-23T05:21:22;11.20;99.90
18797;DHT22;9526;52.612;13.300;2023-03-23T05:23:48;11.20;99.90
18797;DHT22;9526;52.612;13.300;2023-03-23T05:26:15;11.20;99.90
18797;DHT22;9526;52.612;13.300;2023-03-23T05:28:38;11.20;99.90
18797;DHT22;9526;52.612;13.300;2023-03-23T05:31:10;11.20;99.90
18797;DHT22;9526;52.612;13.300;2023-03-23T05:33:35;11.20;99.90
18797;DHT22;9526;52.612;13.300;2023-03-23T05:36:09;11.10;99.90
18797;DHT22;9526;52.612;13.300;2023-03-23T05:38:52;11.10;99.90
18797;DHT22;9526;52.612;13.300;2023-03-23T05:41:16;11.10;99.90
18797;DHT22;9526;52.612;13.300;2023-03-23T05:43:39;11.10;99.90
18797;DHT22;9526;52.612;13.300;2023-03-23T05:46:21;11.10;99.90
18797;DHT22;9526;52.612;13.300;2023-03-23T05:48:47;11.10;99.90
18797;DHT22;9526;52.612;13.300;2023-03-23T05:51:14;11.10;99.90
18797;DHT22;9526;52.612;13.300;2023-03-23T05:53:39;11.00;99.90
18797;DHT22;9526;52.612;13.300;2023-03-23T05:56:02;11.00;99.90
18797;DHT22;9526;52.612;13.300;2023-03-23T05:58:40;11.00;99.90
18797;DHT22;9526;52.612;13.300;2023-03-23T06:01:06;11.00;99.90
18797;DHT22;9526;52.612;13.300;2023-03-23T06:03:29;11.00;99.90
18797;DHT22;9526;52.612;13.300;2023-03-23T06:06:22;11.00;99.90
18797;DHT22;9526;52.612;13.300;2023-03-23T06:08:57;11.00;99.90
18797;DHT22;9526;52.612;13.300;2023-03-23T06:11:33;10.90;99.90
18797;DHT22;9526;52.612;13.300;2023-03-23T06:14:19;10.90;99.90
18797;DHT22;9526;52.612;13.300;2023-03-23T06:16:43;10.90;99.90
18797;DHT22;9526;52.612;13.300;2023-03-23T06:19:08;10.90;99.90
18797;DHT22;9526;52.612;13.300;2023-03-23T06:21:38;10.90;99.90
18797;DHT22;9526;52.612;13.300;2023-03-23T06:24:27;10.90;99.90
18797;DHT22;9526;52.612;13.300;2023-03-23T06:26:50;10.90;99.90
18797;DHT22;9526;52.612;13.300;2023-03-23T06:29:16;10.90;99.90
18797;DHT22;9526;52.612;13.300;2023-03-23T06:31:46;10.80;99.90
18797;DHT22;9526;52.612;13.300;2023-03-23T06:34:10;10.80;99.90
18797;DHT22;9526;52.612;13.300;2023-03-23T06:36:43;10.80;99.90
18797;DHT22;9526;52.612;13.300;2023-03-23T06:39:11;10.80;99.90
18797;DHT22;9526;52.612;13.300;2023-03-23T06:42:00;10.90;99.90
18797;DHT22;9526;52.612;13.300;2023-03-23T06:44:28;10.80;99.90
18797;DHT22;9526;52.612;13.300;2023-03-23T06:46:51;10.80;99.90
18797;DHT22;9526;52.612;13.300;2023-03-23T06:49:19;10.80;99.90
18797;DHT22;9526;52.612;13.300;2023-03-23T06:51:48;10.90;99.90
18797;DHT22;9526;52.612;13.300;2023-03-23T06:54:11;10.90;99.90
18797;DHT22;9526;52.612;13.300;2023-03-23T06:56:35;10.90;99.90
18797;DHT22;9526;52.612;13.300;2023-03-23T06:58:58;10.90;99.90
18797;DHT22;9526;52.612;13.300;2023-03-23T07:01:21;10.90;99.90
18797;DHT22;9526;52.612;13.300;2023-03-23T07:03:50;11.00;99.90
18797;DHT22;9526;52.612;13.300;2023-03-23T07:06:20;11.00;99.90
18797;DHT22;9526;52.612;13.300;2023-03-23T07:08:50;11.00;99.90
18797;DHT22;9526;52.612;13.300;2023-03-23T07:11:17;11.00;99.90
18797;DHT22;9526;52.612;13.300;2023-03-23T07:13:39;11.10;99.90
18797;DHT22;9526;52.612;13.300;2023-03-23T07:16:05;11.10;99.90
18797;DHT22;9526;52.612;13.300;2023-03-23T07:18:29;11.10;99.90
18797;DHT22;9526;52.612;13.300;2023-03-23T07:20:53;11.20;99.90
18797;DHT22;9526;52.612;13.300;2023-03-23T07:23:21;11.20;99.90
18797;DHT22;9526;52.612;13.300;2023-03-23T07:26:02;11.20;99.90
18797;DHT22;9526;52.612;13.300;2023-03-23T07:28:42;11.20;99.90
18797;DHT22;9526;52.612;13.300;2023-03-23T07:31:22;11.10;99.90
18797;DHT22;9526;52.612;13.300;2023-03-23T07:33:45;11.20;99.90
18797;DHT22;9526;52.612;13.300;2023-03-23T07:36:09;11.30;99.90
18797;DHT22;9526;52.612;13.300;2023-03-23T07:38:33;11.20;99.90
18797;DHT22;9526;52.612;13.300;2023-03-23T07:40:55;11.30;99.90
18797;DHT22;9526;52.612;13.300;2023-03-23T07:43:20;11.30;99.90
18797;DHT22;9526;52.612;13.300;2023-03-23T07:46:01;11.30;99.90
18797;DHT22;9526;52.612;13.300;2023-03-23T07:48:34;11.40;99.90
18797;DHT22;9526;52.612;13.300;2023-03-23T07:50:58;11.40;99.90
18797;DHT22;9526;52.612;13.300;2023-03-23T07:53:23;11.50;99.90
18797;DHT22;9526;52.612;13.300;2023-03-23T07:56:00;11.60;99.90
18797;DHT22;9526;52.612;13.300;2023-03-23T07:58:44;11.70;99.90
18797;DHT22;9526;52.612;13.300;2023-03-23T08:01:06;11.80;99.90
18797;DHT22;9526;52.612;13.300;2023-03-23T08:03:30;11.80;99.90
18797;DHT22;9526;52.612;13.300;2023-03-23T08:06:08;11.80;99.90
18797;DHT22;9526;52.612;13.300;2023-03-23T08:08:50;11.80;99.90
18797;DHT22;9526;52.612;13.300;2023-03-23T08:11:32;11.90;99.90
18797;DHT22;9526;52.612;13.300;2023-03-23T08:14:31;11.90;99.90
18797;DHT22;9526;52.612;13.300;2023-03-23T08:17:26;11.80;99.90
18797;DHT22;9526;52.612;13.300;2023-03-23T08:20:04;11.90;99.90
18797;DHT22;9526;52.612;13.300;2023-03-23T08:22:53;11.90;99.90
18797;DHT22;9526;52.612;13.300;2023-03-23T08:25:33;11.90;99.90
18797;DHT22;9526;52.612;13.300;2023-03-23T08:28:16;11.90;99.90
18797;DHT22;9526;52.612;13.300;2023-03-23T08:30:59;12.00;99.90
18797;DHT22;9526;52.612;13.300;2023-03-23T08:33:47;12.00;99.90
18797;DHT22;9526;52.612;13.300;2023-03-23T08:36:30;12.00;99.90
18797;DHT22;9526;52.612;13.300;2023-03-23T08:39:19;12.00;99.90
18797;DHT22;9526;52.612;13.300;2023-03-23T08:42:04;12.10;99.90
18797;DHT22;9526;52.612;13.300;2023-03-23T08:44:50;12.10;99.90
18797;DHT22;9526;52.612;13.300;2023-03-23T08:47:35;12.20;99.90
18797;DHT22;9526;52.612;13.300;2023-03-23T08:50:19;12.30;99.90
18797;DHT22;9526;52.612;13.300;2023-03-23T08:53:04;12.30;99.90
18797;DHT22;9526;52.612;13.300;2023-03-23T08:55:47;12.40;99.90
18797;DHT22;9526;52.612;13.300;2023-03-23T08:58:30;12.40;99.90
18797;DHT22;9526;52.612;13.300;2023-03-23T09:01:25;12.40;99.90
18797;DHT22;9526;52.612;13.300;2023-03-23T09:04:09;12.50;99.90
18797;DHT22;9526;52.612;13.300;2023-03-23T09:07:04;12.60;99.90
18797;DHT22;9526;52.612;13.300;2023-03-23T09:09:27;12.60;99.90
18797;DHT22;9526;52.612;13.300;2023-03-23T09:11:49;12.50;99.90
18797;DHT22;9526;52.612;13.300;2023-03-23T09:14:12;12.50;99.90
18797;DHT22;9526;52.612;13.300;2023-03-23T09:16:35;12.60;99.90
18797;DHT22;9526;52.612;13.300;2023-03-23T09:18:58;12.60;99.90
18797;DHT22;9526;52.612;13.300;2023-03-23T09:21:22;12.60;99.90
18797;DHT22;9526;52.612;13.300;2023-03-23T09:23:45;12.70;99.90
18797;DHT22;9526;52.612;13.300;2023-03-23T09:26:07;12.80;99.90
18797;DHT22;9526;52.612;13.300;2023-03-23T09:28:30;13.00;99.90
18797;DHT22;9526;52.612;13.300;2023-03-23T09:30:55;13.10;99.90
18797;DHT22;9526;52.612;13.300;2023-03-23T09:33:18;13.20;99.90
18797;DHT22;9526;52.612;13.300;2023-03-23T09:35:41;13.40;99.90
18797;DHT22;9526;52.612;13.300;2023-03-23T09:38:06;13.50;99.90
18797;DHT22;9526;52.612;13.300;2023-03-23T09:40:33;13.70;99.90
18797;DHT22;9526;52.612;13.300;2023-03-23T09:46:23;14.00;99.90
18797;DHT22;9526;52.612;13.300;2023-03-23T09:48:53;14.40;99.90
18797;DHT22;9526;52.612;13.300;2023-03-23T09:51:27;14.50;99.90
18797;DHT22;9526;52.612;13.300;2023-03-23T09:53:59;14.70;99.90
18797;DHT22;9526;52.612;13.300;2023-03-23T09:56:26;14.70;99.90
18797;DHT22;9526;52.612;13.300;2023-03-23T09:58:55;14.60;99.90
18797;DHT22;9526;52.612;13.300;2023-03-23T10:01:23;14.80;99.90
18797;DHT22;9526;52.612;13.300;2023-03-23T10:03:48;14.90;99.90
18797;DHT22;9526;52.612;13.300;2023-03-23T10:06:12;14.80;99.90
18797;DHT22;9526;52.612;13.300;2023-03-23T10:08:39;14.70;99.90
18797;DHT22;9526;52.612;13.300;2023-03-23T10:11:11;14.60;99.90
18797;DHT22;9526;52.612;13.300;2023-03-23T10:13:50;14.60;99.90
18797;DHT22;9526;52.612;13.300;2023-03-23T10:16:22;14.40;99.90
18797;DHT22;9526;52.612;13.300;2023-03-23T10:18:51;14.40;99.90
18797;DHT22;9526;52.612;13.300;2023-03-23T10:21:20;14.30;99.90
18797;DHT22;9526;52.612;13.300;2023-03-23T10:23:53;14.40;99.90
18797;DHT22;9526;52.612;13.300;2023-03-23T10:26:28;14.50;99.90
18797;DHT22;9526;52.612;13.300;2023-03-23T10:29:01;14.70;99.90
18797;DHT22;9526;52.612;13.300;2023-03-23T10:31:35;14.70;99.90
18797;DHT22;9526;52.612;13.300;2023-03-23T10:34:02;14.90;99.90
18797;DHT22;9526;52.612;13.300;2023-03-23T10:36:35;15.10;99.90
18797;DHT22;9526;52.612;13.300;2023-03-23T10:39:05;15.20;99.90
18797;DHT22;9526;52.612;13.300;2023-03-23T10:41:33;15.30;99.90
18797;DHT22;9526;52.612;13.300;2023-03-23T10:43:56;15.30;99.90
18797;DHT22;9526;52.612;13.300;2023-03-23T10:46:31;15.40;99.90
18797;DHT22;9526;52.612;13.300;2023-03-23T10:49:00;15.40;99.90
18797;DHT22;9526;52.612;13.300;2023-03-23T10:51:30;15.40;99.90
18797;DHT22;9526;52.612;13.300;2023-03-23T10:53:58;15.50;99.90
18797;DHT22;9526;52.612;13.300;2023-03-23T10:56:25;15.60;99.90
18797;DHT22;9526;52.612;13.300;2023-03-23T10:58:51;15.60;99.90
18797;DHT22;9526;52.612;13.300;2023-03-23T11:01:14;15.50;99.90
18797;DHT22;9526;52.612;13.300;2023-03-23T11:03:40;15.50;99.90
18797;DHT22;9526;52.612;13.300;2023-03-23T11:06:06;15.50;99.90
18797;DHT22;9526;52.612;13.300;2023-03-23T11:08:34;15.40;99.90
18797;DHT22;9526;52.612;13.300;2023-03-23T11:11:09;15.50;99.90
18797;DHT22;9526;52.612;13.300;2023-03-23T11:13:33;15.50;99.90
18797;DHT22;9526;52.612;13.300;2023-03-23T11:15:57;15.30;99.90
18797;DHT22;9526;52.612;13.300;2023-03-23T11:18:24;15.30;99.90
18797;DHT22;9526;52.612;13.300;2023-03-23T11:20:51;15.40;99.90
18797;DHT22;9526;52.612;13.300;2023-03-23T11:23:22;15.50;99.90
18797;DHT22;9526;52.612;13.300;2023-03-23T11:25:53;15.50;99.90
18797;DHT22;9526;52.612;13.300;2023-03-23T11:28:19;15.60;99.90
18797;DHT22;9526;52.612;13.300;2023-03-23T11:30:41;15.70;99.90
18797;DHT22;9526;52.612;13.300;2023-03-23T11:33:07;15.70;99.90
18797;DHT22;9526;52.612;13.300;2023-03-23T11:35:30;15.80;99.90
18797;DHT22;9526;52.612;13.300;2023-03-23T11:37:54;15.90;99.90
18797;DHT22;9526;52.612;13.300;2023-03-23T11:40:19;15.70;99.90
18797;DHT22;9526;52.612;13.300;2023-03-23T11:42:45;15.80;99.90
18797;DHT22;9526;52.612;13.300;2023-03-23T11:45:18;15.90;99.90
18797;DHT22;9526;52.612;13.300;2023-03-23T11:47:49;16.10;99.90
18797;DHT22;9526;52.612;13.300;2023-03-23T11:50:22;16.20;99.90
18797;DHT22;9526;52.612;13.300;2023-03-23T11:52:50;16.30;99.90
18797;DHT22;9526;52.612;13.300;2023-03-23T11:55:16;16.20;99.90
18797;DHT22;9526;52.612;13.300;2023-03-23T11:57:42;16.20;99.90
18797;DHT22;9526;52.612;13.300;2023-03-23T12:00:13;16.30;99.90
18797;DHT22;9526;52.612;13.300;2023-03-23T12:05:53;16.40;99.90
18797;DHT22;9526;52.612;13.300;2023-03-23T12:08:34;16.20;99.90
18797;DHT22;9526;52.612;13.300;2023-03-23T12:11:10;16.30;99.90
18797;DHT22;9526;52.612;13.300;2023-03-23T12:13:51;16.20;99.90
18797;DHT22;9526;52.612;13.300;2023-03-23T12:16:29;16.20;99.90
18797;DHT22;9526;52.612;13.300;2023-03-23T12:19:03;16.00;99.90
18797;DHT22;9526;52.612;13.300;2023-03-23T12:21:42;15.90;99.90
18797;DHT22;9526;52.612;13.300;2023-03-23T12:24:17;15.90;99.90
18797;DHT22;9526;52.612;13.300;2023-03-23T12:26:50;16.00;99.90
18797;DHT22;9526;52.612;13.300;2023-03-23T12:29:39;15.90;99.90
18797;DHT22;9526;52.612;13.300;2023-03-23T12:32:25;15.90;99.90
18797;DHT22;9526;52.612;13.300;2023-03-23T12:35:11;15.90;99.90
18797;DHT22;9526;52.612;13.300;2023-03-23T12:37:49;15.90;99.90
18797;DHT22;9526;52.612;13.300;2023-03-23T12:40:37;15.90;99.90
18797;DHT22;9526;52.612;13.300;2023-03-23T12:43:15;15.80;99.90
18797;DHT22;9526;52.612;13.300;2023-03-23T12:46:00;15.90;99.90
18797;DHT22;9526;52.612;13.300;2023-03-23T12:48:34;16.00;99.90
18797;DHT22;9526;52.612;13.300;2023-03-23T12:51:12;16.10;99.90
18797;DHT22;9526;52.612;13.300;2023-03-23T12:53:48;16.10;99.90
18797;DHT22;9526;52.612;13.300;2023-03-23T12:56:17;16.10;99.90
18797;DHT22;9526;52.612;13.300;2023-03-23T12:58:46;16.40;99.90
18797;DHT22;9526;52.612;13.300;2023-03-23T13:01:13;16.70;99.90
18797;DHT22;9526;52.612;13.300;2023-03-23T13:03:49;16.80;99.90
18797;DHT22;9526;52.612;13.300;2023-03-23T13:06:18;16.90;99.90
18797;DHT22;9526;52.612;13.300;2023-03-23T13:08:49;17.10;99.90
18797;DHT22;9526;52.612;13.300;2023-03-23T13:11:19;17.00;99.90
18797;DHT22;9526;52.612;13.300;2023-03-23T13:13:49;17.10;99.90
18797;DHT22;9526;52.612;13.300;2023-03-23T13:16:19;17.20;99.90
18797;DHT22;9526;52.612;13.300;2023-03-23T13:18:53;17.10;99.90
18797;DHT22;9526;52.612;13.300;2023-03-23T13:21:24;17.20;99.90
18797;DHT22;9526;52.612;13.300;2023-03-23T13:23:54;17.10;99.90
18797;DHT22;9526;52.612;13.300;2023-03-23T13:26:19;17.10;99.90
18797;DHT22;9526;52.612;13.300;2023-03-23T13:28:56;17.10;99.90
18797;DHT22;9526;52.612;13.300;2023-03-23T13:31:22;17.20;99.90
18797;DHT22;9526;52.612;13.300;2023-03-23T13:33:52;17.40;99.90
18797;DHT22;9526;52.612;13.300;2023-03-23T13:36:29;17.40;99.90
18797;DHT22;9526;52.612;13.300;2023-03-23T13:38:56;17.30;99.90
18797;DHT22;9526;52.612;13.300;2023-03-23T13:41:21;17.40;99.90
18797;DHT22;9526;52.612;13.300;2023-03-23T13:43:44;17.30;99.90
18797;DHT22;9526;52.612;13.300;2023-03-23T13:46:10;17.50;99.90
18797;DHT22;9526;52.612;13.300;2023-03-23T13:48:46;17.50;99.90
18797;DHT22;9526;52.612;13.300;2023-03-23T13:51:32;17.40;99.90
18797;DHT22;9526;52.612;13.300;2023-03-23T13:54:20;17.50;99.90
18797;DHT22;9526;52.612;13.300;2023-03-23T13:56:54;17.50;99.90
18797;DHT22;9526;52.612;13.300;2023-03-23T13:59:30;17.60;99.90
18797;DHT22;9526;52.612;13.300;2023-03-23T14:01:55;17.40;99.90
18797;DHT22;9526;52.612;13.300;2023-03-23T14:04:19;17.30;99.90
18797;DHT22;9526;52.612;13.300;2023-03-23T14:06:43;17.40;99.90
18797;DHT22;9526;52.612;13.300;2023-03-23T14:09:27;17.70;99.90
18797;DHT22;9526;52.612;13.300;2023-03-23T14:11:55;17.70;99.90
18797;DHT22;9526;52.612;13.300;2023-03-23T14:14:25;17.70;99.90
18797;DHT22;9526;52.612;13.300;2023-03-23T14:16:50;17.60;99.90
18797;DHT22;9526;52.612;13.300;2023-03-23T14:19:16;17.60;99.90
18797;DHT22;9526;52.612;13.300;2023-03-23T14:21:48;17.40;99.90
18797;DHT22;9526;52.612;13.300;2023-03-23T14:24:15;17.30;99.90
18797;DHT22;9526;52.612;13.300;2023-03-23T14:26:40;17.30;99.90
18797;DHT22;9526;52.612;13.300;2023-03-23T14:29:04;17.20;99.90
18797;DHT22;9526;52.612;13.300;2023-03-23T14:31:28;17.10;99.90
18797;DHT22;9526;52.612;13.300;2023-03-23T14:33:52;17.10;99.90
18797;DHT22;9526;52.612;13.300;2023-03-23T14:36:20;17.00;99.90
18797;DHT22;9526;52.612;13.300;2023-03-23T14:38:44;17.00;99.90
18797;DHT22;9526;52.612;13.300;2023-03-23T14:41:10;17.00;99.90
18797;DHT22;9526;52.612;13.300;2023-03-23T14:43:35;17.00;99.90
18797;DHT22;9526;52.612;13.300;2023-03-23T14:46:00;17.00;99.90
18797;DHT22;9526;52.612;13.300;2023-03-23T14:48:25;16.90;99.90
18797;DHT22;9526;52.612;13.300;2023-03-23T14:50:52;16.90;99.90
18797;DHT22;9526;52.612;13.300;2023-03-23T14:53:21;17.00;99.90
18797;DHT22;9526;52.612;13.300;2023-03-23T14:55:47;17.10;99.90
18797;DHT22;9526;52.612;13.300;2023-03-23T14:58:14;17.00;99.90
18797;DHT22;9526;52.612;13.300;2023-03-23T15:00:42;16.90;99.90
18797;DHT22;9526;52.612;13.300;2023-03-23T15:03:10;16.90;99.90
18797;DHT22;9526;52.612;13.300;2023-03-23T15:05:36;17.00;99.90
18797;DHT22;9526;52.612;13.300;2023-03-23T15:08:04;17.00;99.90
18797;DHT22;9526;52.612;13.300;2023-03-23T15:10:28;17.00;99.90
18797;DHT22;9526;52.612;13.300;2023-03-23T15:12:52;17.00;99.90
18797;DHT22;9526;52.612;13.300;2023-03-23T15:15:21;17.00;99.90
18797;DHT22;9526;52.612;13.300;2023-03-23T15:17:48;17.10;99.90
18797;DHT22;9526;52.612;13.300;2023-03-23T15:20:21;17.10;99.90
18797;DHT22;9526;52.612;13.300;2023-03-23T15:22:46;17.10;99.90
18797;DHT22;9526;52.612;13.300;2023-03-23T15:25:12;17.10;99.90
18797;DHT22;9526;52.612;13.300;2023-03-23T15:27:41;17.10;99.90
18797;DHT22;9526;52.612;13.300;2023-03-23T15:30:14;17.00;99.90
18797;DHT22;9526;52.612;13.300;2023-03-23T15:32:39;17.10;99.90
18797;DHT22;9526;52.612;13.300;2023-03-23T15:35:11;17.00;99.90
18797;DHT22;9526;52.612;13.300;2023-03-23T15:37:41;16.90;99.90
18797;DHT22;9526;52.612;13.300;2023-03-23T15:40:13;16.90;99.90
18797;DHT22;9526;52.612;13.300;2023-03-23T15:42:37;16.90;99.90
18797;DHT22;9526;52.612;13.300;2023-03-23T15:45:23;16.90;99.90
18797;DHT22;9526;52.612;13.300;2023-03-23T15:47:49;16.80;99.90
18797;DHT22;9526;52.612;13.300;2023-03-23T15:50:14;16.70;99.90
18797;DHT22;9526;52.612;13.300;2023-03-23T15:52:38;16.70;99.90